createdAt,value
2023-05-20T00:01:29.993Z,1.80
2023-05-20T00:03:58.078Z,2.07
2023-05-20T00:06:28.162Z,1.63
2023-05-20T00:08:55.962Z,1.83
2023-05-20T00:11:23.562Z,1.93
2023-05-20T00:14:06.338Z,2.33
2023-05-20T00:16:51.598Z,2.03
2023-05-20T00:19:40.861Z,1.60
2023-05-20T00:22:11.884Z,2.10
2023-05-20T00:24:39.476Z,1.90
2023-05-20T00:27:07.282Z,2.10
2023-05-20T00:29:35.309Z,1.93
2023-05-20T00:32:09.457Z,2.00
2023-05-20T00:34:36.944Z,2.10
2023-05-20T00:37:04.481Z,2.00
2023-05-20T00:39:32.261Z,2.10
2023-05-20T00:42:03.613Z,2.37
2023-05-20T00:44:31.221Z,1.83
2023-05-20T00:46:58.576Z,1.93
2023-05-20T00:49:26.129Z,2.17
2023-05-20T00:51:53.408Z,2.10
2023-05-20T00:54:22.271Z,2.07
2023-05-20T00:56:49.532Z,2.03
2023-05-20T00:59:17.291Z,2.23
2023-05-20T01:01:44.813Z,1.70
2023-05-20T01:04:12.209Z,2.07
2023-05-20T01:06:39.477Z,1.70
2023-05-20T01:09:06.875Z,2.10
2023-05-20T01:11:55.453Z,1.73
2023-05-20T01:14:25.895Z,2.30
2023-05-20T01:16:55.518Z,2.20
2023-05-20T01:19:45.073Z,2.03
2023-05-20T01:22:14.419Z,1.80
2023-05-20T01:24:45.277Z,2.30
2023-05-20T01:27:16.457Z,1.90
2023-05-20T01:29:44.294Z,2.10
2023-05-20T01:32:39.132Z,2.33
2023-05-20T01:35:08.180Z,1.93
2023-05-20T01:37:40.678Z,1.77
2023-05-20T01:40:12.079Z,2.00
2023-05-20T01:42:41.662Z,2.53
2023-05-20T01:45:09.751Z,2.37
2023-05-20T01:47:37.231Z,1.93
2023-05-20T01:50:08.513Z,2.00
2023-05-20T01:52:36.249Z,2.17
2023-05-20T01:55:04.009Z,2.40
2023-05-20T01:57:31.347Z,3.30
2023-05-20T02:00:02.187Z,1.83
2023-05-20T02:02:29.474Z,2.10
2023-05-20T02:04:59.752Z,2.20
2023-05-20T02:07:26.898Z,1.67
2023-05-20T02:09:59.345Z,2.17
2023-05-20T02:12:29.254Z,1.90
2023-05-20T02:15:02.520Z,2.10
2023-05-20T02:17:29.804Z,1.97
2023-05-20T02:19:57.031Z,2.10
2023-05-20T02:22:24.126Z,1.70
2023-05-20T02:24:51.226Z,1.90
2023-05-20T02:27:18.352Z,1.90
2023-05-20T02:29:45.654Z,1.87
2023-05-20T02:32:12.759Z,2.00
2023-05-20T02:34:39.849Z,2.23
2023-05-20T02:37:06.995Z,2.20
2023-05-20T02:39:34.057Z,2.10
2023-05-20T02:42:01.246Z,1.87
2023-05-20T02:44:30.532Z,2.40
2023-05-20T02:46:57.696Z,2.50
2023-05-20T02:49:24.833Z,2.20
2023-05-20T02:51:51.931Z,1.90
2023-05-20T02:54:19.353Z,1.97
2023-05-20T02:56:46.503Z,2.07
2023-05-20T02:59:13.732Z,2.17
2023-05-20T03:01:41.164Z,2.13
2023-05-20T03:04:08.890Z,1.83
2023-05-20T03:06:36.264Z,2.00
2023-05-20T03:09:03.477Z,2.00
2023-05-20T03:11:30.621Z,2.27
2023-05-20T03:13:57.780Z,2.27
2023-05-20T03:16:25.209Z,2.30
2023-05-20T03:18:54.571Z,2.17
2023-05-20T03:21:23.939Z,2.37
2023-05-20T03:23:53.586Z,2.13
2023-05-20T03:26:21.745Z,2.13
2023-05-20T03:28:49.232Z,2.10
2023-05-20T03:31:16.422Z,2.50
2023-05-20T03:33:45.442Z,2.00
2023-05-20T03:36:12.778Z,2.23
2023-05-20T03:38:39.901Z,2.17
2023-05-20T03:41:07.137Z,2.57
2023-05-20T03:43:34.237Z,2.17
2023-05-20T03:46:01.494Z,2.23
2023-05-20T03:48:28.705Z,2.30
2023-05-20T03:50:55.874Z,2.40
2023-05-20T03:53:23.132Z,2.80
2023-05-20T03:55:50.550Z,2.33
2023-05-20T03:58:20.523Z,2.30
2023-05-20T04:00:49.004Z,2.50
2023-05-20T04:03:16.385Z,2.40
2023-05-20T04:05:43.571Z,2.67
2023-05-20T04:08:16.496Z,2.30
2023-05-20T04:10:43.766Z,2.43
2023-05-20T04:13:11.781Z,2.20
2023-05-20T04:15:41.519Z,2.40
2023-05-20T04:18:08.766Z,2.40
2023-05-20T04:20:36.404Z,2.10
2023-05-20T04:23:04.744Z,2.43
2023-05-20T04:25:32.315Z,2.43
2023-05-20T04:28:01.878Z,2.10
2023-05-20T04:30:30.121Z,2.73
2023-05-20T04:33:03.487Z,2.60
2023-05-20T04:35:30.948Z,3.07
2023-05-20T04:37:58.263Z,2.50
2023-05-20T04:40:32.412Z,1.97
2023-05-20T04:43:04.194Z,2.50
2023-05-20T04:45:33.694Z,2.70
2023-05-20T04:48:01.215Z,2.80
2023-05-20T04:50:31.365Z,2.87
2023-05-20T04:52:59.010Z,2.83
2023-05-20T04:55:37.415Z,2.53
2023-05-20T04:58:04.679Z,2.80
2023-05-20T05:00:31.811Z,2.60
2023-05-20T05:03:01.268Z,2.50
2023-05-20T05:05:28.442Z,2.90
2023-05-20T05:07:56.096Z,2.27
2023-05-20T05:10:26.282Z,3.00
2023-05-20T05:12:53.470Z,2.77
2023-05-20T05:15:20.745Z,2.87
2023-05-20T05:17:47.995Z,2.90
2023-05-20T05:20:18.790Z,2.60
2023-05-20T05:22:50.620Z,2.50
2023-05-20T05:25:18.062Z,2.80
2023-05-20T05:27:45.612Z,2.87
2023-05-20T05:30:19.434Z,3.03
2023-05-20T05:32:47.175Z,3.00
2023-05-20T05:35:17.249Z,3.00
2023-05-20T05:37:50.528Z,3.33
2023-05-20T05:40:20.876Z,2.77
2023-05-20T05:42:48.326Z,2.73
2023-05-20T05:45:15.498Z,2.80
2023-05-20T05:47:46.122Z,2.63
2023-05-20T05:50:13.369Z,2.87
2023-05-20T05:52:41.223Z,3.10
2023-05-20T05:55:10.795Z,3.40
2023-05-20T05:57:38.071Z,2.97
2023-05-20T06:00:06.652Z,3.00
2023-05-20T06:02:36.925Z,3.07
2023-05-20T06:05:05.677Z,2.67
2023-05-20T06:07:32.871Z,2.90
2023-05-20T06:10:00.274Z,2.90
2023-05-20T06:12:27.691Z,2.73
2023-05-20T06:14:54.872Z,3.10
2023-05-20T06:17:22.086Z,2.83
2023-05-20T06:19:52.427Z,2.53
2023-05-20T06:22:22.654Z,3.07
2023-05-20T06:24:54.855Z,3.00
2023-05-20T06:27:25.584Z,2.57
2023-05-20T06:29:58.851Z,2.93
2023-05-20T06:32:38.046Z,3.10
2023-05-20T06:35:14.008Z,2.97
2023-05-20T06:40:47.774Z,3.23
2023-05-20T06:43:18.471Z,3.20
2023-05-20T06:45:54.457Z,3.03
2023-05-20T06:48:21.969Z,2.80
2023-05-20T06:50:49.609Z,2.80
2023-05-20T06:53:17.138Z,2.80
2023-05-20T06:55:44.371Z,2.73
2023-05-20T06:58:11.559Z,2.90
2023-05-20T07:00:39.326Z,3.07
2023-05-20T07:03:06.912Z,2.97
2023-05-20T07:05:34.297Z,2.83
2023-05-20T07:08:05.525Z,2.60
2023-05-20T07:10:33.223Z,3.10
2023-05-20T07:13:01.037Z,3.20
2023-05-20T07:16:07.016Z,3.57
2023-05-20T07:18:34.197Z,3.10
2023-05-20T07:21:04.836Z,3.13
2023-05-20T07:23:37.001Z,3.23
2023-05-20T07:26:07.477Z,2.93
2023-05-20T07:28:44.173Z,3.10
2023-05-20T07:31:11.690Z,3.30
2023-05-20T07:33:59.860Z,3.10
2023-05-20T07:36:28.763Z,3.73
2023-05-20T07:39:02.638Z,3.17
2023-05-20T07:41:42.298Z,3.47
2023-05-20T07:44:11.487Z,3.33
2023-05-20T07:46:39.652Z,3.40
2023-05-20T07:49:07.220Z,3.10
2023-05-20T07:51:34.526Z,2.97
2023-05-20T07:54:02.342Z,3.17
2023-05-20T07:56:29.735Z,3.57
2023-05-20T07:59:00.789Z,3.20
2023-05-20T08:01:28.420Z,3.10
2023-05-20T08:03:55.865Z,3.30
2023-05-20T08:06:28.698Z,2.97
2023-05-20T08:08:56.999Z,3.07
2023-05-20T08:11:24.342Z,3.23
2023-05-20T08:13:52.625Z,3.03
2023-05-20T08:16:24.758Z,3.20
2023-05-20T08:18:52.176Z,3.27
2023-05-20T08:21:19.562Z,3.50
2023-05-20T08:23:46.873Z,3.53
2023-05-20T08:26:14.255Z,3.40
2023-05-20T08:28:41.667Z,3.13
2023-05-20T08:31:11.661Z,3.00
2023-05-20T08:33:44.977Z,3.10
2023-05-20T08:36:16.242Z,2.87
2023-05-20T08:38:43.787Z,3.00
2023-05-20T08:41:10.963Z,2.93
2023-05-20T08:43:38.738Z,4.20
2023-05-20T08:46:07.004Z,3.10
2023-05-20T08:48:58.652Z,3.40
2023-05-20T08:51:33.694Z,3.20
2023-05-20T08:54:01.527Z,3.10
2023-05-20T08:56:30.984Z,3.20
2023-05-20T08:58:58.634Z,3.07
2023-05-20T09:01:26.822Z,3.00
2023-05-20T09:03:57.276Z,3.20
2023-05-20T09:06:27.169Z,3.20
2023-05-20T09:09:06.417Z,3.30
2023-05-20T09:12:05.023Z,3.17
2023-05-20T09:14:35.110Z,3.10
2023-05-20T09:17:08.325Z,3.30
2023-05-20T09:19:57.413Z,3.03
2023-05-20T09:22:29.328Z,3.00
2023-05-20T09:24:59.317Z,2.90
2023-05-20T09:27:26.571Z,2.93
2023-05-20T09:29:59.905Z,3.20
2023-05-20T09:32:29.605Z,3.20
2023-05-20T09:35:04.139Z,4.27
2023-05-20T09:37:34.904Z,4.60
2023-05-20T09:40:11.028Z,4.30
2023-05-20T09:43:19.613Z,4.83
2023-05-20T09:45:55.814Z,4.27
2023-05-20T09:48:29.547Z,4.50
2023-05-20T09:51:08.370Z,4.60
2023-05-20T09:53:48.999Z,4.67
2023-05-20T09:56:17.599Z,4.47
2023-05-20T09:58:51.864Z,4.23
2023-05-20T10:01:19.311Z,4.50
2023-05-20T10:03:53.855Z,4.40
2023-05-20T10:07:41.701Z,4.73
2023-05-20T10:10:48.420Z,4.77
2023-05-20T10:14:07.434Z,5.47
2023-05-20T10:17:55.361Z,4.57
2023-05-20T10:20:32.168Z,4.73
2023-05-20T10:23:04.874Z,4.93
2023-05-20T10:25:32.244Z,4.60
2023-05-20T10:28:13.985Z,3.80
2023-05-20T10:30:51.343Z,4.47
2023-05-20T10:33:19.937Z,5.37
2023-05-20T10:36:02.658Z,4.70
2023-05-20T10:38:52.088Z,4.30
2023-05-20T10:41:51.688Z,4.73
2023-05-20T10:44:25.228Z,4.40
2023-05-20T10:49:55.715Z,4.97
2023-05-20T10:52:24.295Z,5.47
2023-05-20T10:55:37.235Z,5.17
2023-05-20T10:58:11.656Z,5.10
2023-05-20T11:00:56.354Z,5.40
2023-05-20T11:03:27.140Z,5.23
2023-05-20T11:05:57.867Z,5.60
2023-05-20T11:09:13.877Z,5.07
2023-05-20T11:11:50.306Z,5.60
2023-05-20T11:17:19.090Z,5.07
2023-05-20T11:19:51.307Z,5.27
2023-05-20T11:22:34.880Z,5.40
2023-05-20T11:25:09.832Z,5.47
2023-05-20T11:27:56.855Z,6.10
2023-05-20T11:30:36.872Z,6.10
2023-05-20T11:33:05.462Z,5.40
2023-05-20T11:35:36.160Z,5.47
2023-05-20T11:38:10.241Z,5.77
2023-05-20T11:40:49.942Z,5.27
2023-05-20T11:43:34.213Z,5.13
2023-05-20T11:46:01.803Z,5.63
2023-05-20T11:48:29.542Z,5.27
2023-05-20T11:51:02.271Z,5.27
2023-05-20T11:53:30.244Z,5.27
2023-05-20T11:56:06.490Z,5.20
2023-05-20T11:58:40.175Z,5.90
2023-05-20T12:01:22.241Z,5.30
2023-05-20T12:03:53.408Z,4.90
2023-05-20T12:06:21.475Z,5.43
2023-05-20T12:08:52.055Z,5.70
2023-05-20T12:11:25.232Z,5.07
2023-05-20T12:13:53.032Z,6.13
2023-05-20T12:16:20.375Z,5.53
2023-05-20T12:18:48.083Z,5.40
2023-05-20T12:21:31.589Z,5.47
2023-05-20T12:24:07.135Z,5.43
2023-05-20T12:26:35.590Z,5.40
2023-05-20T12:29:03.096Z,6.00
2023-05-20T12:31:31.829Z,5.23
2023-05-20T12:34:01.336Z,5.68
2023-05-20T12:36:28.897Z,4.70
2023-05-20T12:38:59.144Z,5.07
2023-05-20T12:45:48.673Z,5.15
2023-05-20T12:48:21.489Z,4.78
2023-05-20T12:50:48.855Z,5.15
2023-05-20T12:53:16.089Z,5.47
2023-05-20T12:55:43.295Z,4.75
2023-05-20T12:58:10.786Z,4.32
2023-05-20T13:00:43.691Z,4.97
2023-05-20T13:03:11.437Z,4.90
2023-05-20T13:05:38.816Z,4.95
2023-05-20T13:08:06.484Z,4.53
2023-05-20T13:10:34.057Z,4.50
2023-05-20T13:13:01.406Z,4.57
2023-05-20T13:15:28.933Z,4.20
2023-05-20T13:18:01.596Z,4.45
2023-05-20T13:20:30.112Z,5.25
2023-05-20T13:23:02.899Z,4.72
2023-05-20T13:25:31.918Z,4.82
2023-05-20T13:27:59.487Z,4.82
2023-05-20T13:30:28.385Z,4.75
2023-05-20T13:33:01.166Z,4.63
2023-05-20T13:35:28.670Z,4.43
2023-05-20T13:37:55.960Z,4.30
2023-05-20T13:40:23.208Z,4.85
2023-05-20T13:42:56.499Z,5.22
2023-05-20T13:45:23.656Z,4.07
2023-05-20T13:47:51.434Z,4.30
2023-05-20T13:50:23.117Z,4.60
2023-05-20T13:52:50.231Z,4.65
2023-05-20T13:55:18.882Z,4.82
2023-05-20T13:57:46.191Z,4.45
2023-05-20T14:00:14.713Z,4.72
2023-05-20T14:02:41.920Z,4.70
2023-05-20T14:05:09.704Z,4.20
2023-05-20T14:07:37.390Z,4.20
2023-05-20T14:10:06.395Z,4.60
2023-05-20T14:12:33.783Z,4.53
2023-05-20T14:15:00.982Z,4.30
2023-05-20T14:17:28.239Z,4.35
2023-05-20T14:19:55.466Z,4.05
2023-05-20T14:22:22.635Z,4.47
2023-05-20T14:24:57.272Z,4.00
2023-05-20T14:27:27.657Z,3.95
2023-05-20T14:29:54.908Z,4.10
2023-05-20T14:32:22.046Z,3.72
2023-05-20T14:34:49.395Z,3.55
2023-05-20T14:37:16.860Z,3.80
2023-05-20T14:39:44.091Z,3.97
2023-05-20T14:42:12.462Z,4.22
2023-05-20T14:44:39.666Z,4.25
2023-05-20T14:47:06.966Z,4.05
2023-05-20T14:49:52.681Z,4.35
2023-05-20T14:52:23.283Z,3.92
2023-05-20T14:54:50.648Z,3.33
2023-05-20T14:57:20.759Z,3.75
2023-05-20T14:59:51.864Z,3.63
2023-05-20T15:02:19.939Z,4.00
2023-05-20T15:04:47.967Z,4.20
2023-05-20T15:07:16.616Z,3.92
2023-05-20T15:09:44.012Z,3.95
2023-05-20T15:12:14.429Z,3.90
2023-05-20T15:14:43.823Z,3.45
2023-05-20T15:17:11.751Z,4.22
2023-05-20T15:19:41.886Z,3.90
2023-05-20T15:22:12.212Z,3.65
2023-05-20T15:24:39.565Z,3.67
2023-05-20T15:27:06.950Z,3.80
2023-05-20T15:29:34.147Z,4.18
2023-05-20T15:32:01.480Z,4.22
2023-05-20T15:34:29.029Z,3.58
2023-05-20T15:37:06.872Z,3.97
2023-05-20T15:39:40.991Z,13.77
2023-05-20T15:42:13.598Z,53.42
2023-05-20T15:44:40.965Z,27.73
2023-05-20T15:47:10.907Z,6.88
2023-05-20T15:49:38.193Z,5.20
2023-05-20T15:52:05.976Z,6.90
2023-05-20T15:54:33.196Z,4.82
2023-05-20T15:57:02.791Z,4.53
2023-05-20T15:59:30.125Z,4.88
2023-05-20T16:01:57.377Z,3.97
2023-05-20T16:04:33.876Z,3.97
2023-05-20T16:07:01.470Z,3.95
2023-05-20T16:09:31.772Z,3.90
2023-05-20T16:12:05.386Z,4.05
2023-05-20T16:14:32.560Z,3.85
2023-05-20T16:17:03.751Z,4.05
2023-05-20T16:19:38.038Z,3.78
2023-05-20T16:22:14.644Z,3.70
2023-05-20T16:24:42.035Z,3.53
2023-05-20T16:27:12.058Z,3.45
2023-05-20T16:29:41.733Z,3.90
2023-05-20T16:32:08.970Z,3.60
2023-05-20T16:34:37.795Z,4.05
2023-05-20T16:37:08.239Z,3.50
2023-05-20T16:39:41.575Z,4.13
2023-05-20T16:42:09.278Z,3.78
2023-05-20T16:44:38.734Z,3.70
2023-05-20T16:47:08.110Z,4.13
2023-05-20T16:49:36.032Z,4.72
2023-05-20T16:52:07.893Z,3.38
2023-05-20T16:54:40.701Z,3.30
2023-05-20T16:57:12.383Z,3.53
2023-05-20T16:59:39.469Z,3.55
2023-05-20T17:02:12.100Z,3.65
2023-05-20T17:04:57.136Z,3.67
2023-05-20T17:07:24.324Z,3.72
2023-05-20T17:09:53.079Z,3.75
2023-05-20T17:12:20.746Z,3.58
2023-05-20T17:14:47.892Z,3.53
2023-05-20T17:17:22.727Z,3.65
2023-05-20T17:19:49.929Z,3.58
2023-05-20T17:22:17.088Z,3.83
2023-05-20T17:24:44.681Z,3.58
2023-05-20T17:27:14.621Z,3.33
2023-05-20T17:29:41.870Z,3.42
2023-05-20T17:32:09.327Z,3.20
2023-05-20T17:34:36.808Z,3.30
2023-05-20T17:37:10.725Z,3.63
2023-05-20T17:39:37.910Z,2.95
2023-05-20T17:42:08.493Z,3.35
2023-05-20T17:44:35.926Z,3.58
2023-05-20T17:47:03.161Z,3.55
2023-05-20T17:49:30.768Z,3.65
2023-05-20T17:55:11.392Z,3.22
2023-05-20T17:57:40.985Z,3.13
2023-05-20T18:00:25.901Z,3.60
2023-05-20T18:03:08.960Z,3.85
2023-05-20T18:06:14.870Z,3.15
2023-05-20T18:09:01.241Z,3.25
2023-05-20T18:11:57.887Z,3.60
2023-05-20T18:14:28.344Z,3.33
2023-05-20T18:17:39.528Z,3.33
2023-05-20T18:23:18.097Z,3.30
2023-05-20T18:25:48.748Z,3.50
2023-05-20T18:28:16.836Z,3.03
2023-05-20T18:30:44.258Z,3.25
2023-05-20T18:33:16.234Z,3.92
2023-05-20T18:35:43.825Z,3.33
2023-05-20T18:38:24.949Z,3.42
2023-05-20T18:40:55.171Z,3.85
2023-05-20T18:46:36.227Z,3.27
2023-05-20T18:49:03.498Z,3.42
2023-05-20T18:51:34.955Z,3.60
2023-05-20T18:54:05.061Z,3.53
2023-05-20T18:56:32.513Z,3.95
2023-05-20T18:59:14.973Z,4.70
2023-05-20T19:01:51.031Z,4.13
2023-05-20T19:04:27.909Z,4.28
2023-05-20T19:07:04.883Z,4.40
2023-05-20T19:09:43.212Z,3.80
2023-05-20T19:12:24.792Z,3.53
2023-05-20T19:14:58.030Z,3.60
2023-05-20T19:17:28.518Z,4.23
2023-05-20T19:20:07.250Z,3.73
2023-05-20T19:22:40.864Z,3.40
2023-05-20T19:25:14.297Z,3.60
2023-05-20T19:28:00.067Z,3.93
2023-05-20T19:30:27.321Z,3.90
2023-05-20T19:32:54.809Z,3.95
2023-05-20T19:35:33.408Z,3.80
2023-05-20T19:38:01.927Z,4.47
2023-05-20T19:40:38.516Z,3.60
2023-05-20T19:43:08.852Z,4.27
2023-05-20T19:45:44.644Z,3.87
2023-05-20T19:48:12.241Z,3.90
2023-05-20T19:50:50.138Z,3.80
2023-05-20T19:53:17.983Z,3.70
2023-05-20T19:55:48.336Z,4.00
2023-05-20T19:58:25.872Z,4.03
2023-05-20T20:00:59.066Z,4.40
2023-05-20T20:03:29.749Z,4.13
2023-05-20T20:05:57.215Z,4.30
2023-05-20T20:08:27.544Z,3.93
2023-05-20T20:10:58.252Z,4.20
2023-05-20T20:13:25.797Z,4.47
2023-05-20T20:15:59.125Z,4.67
2023-05-20T20:18:39.090Z,4.57
2023-05-20T20:21:11.045Z,5.10
2023-05-20T20:23:46.927Z,4.70
2023-05-20T20:26:21.621Z,4.80
2023-05-20T20:28:52.130Z,4.73
2023-05-20T20:31:27.484Z,5.17
2023-05-20T20:34:12.147Z,5.00
2023-05-20T20:36:39.815Z,4.63
2023-05-20T20:39:07.032Z,4.73
2023-05-20T20:41:35.148Z,5.47
2023-05-20T20:44:03.404Z,4.93
2023-05-20T20:46:31.045Z,4.57
2023-05-20T20:49:01.712Z,5.27
2023-05-20T20:51:29.275Z,5.33
2023-05-20T20:53:57.463Z,5.93
2023-05-20T20:56:25.931Z,5.50
2023-05-20T20:58:54.141Z,5.63
2023-05-20T21:01:21.393Z,5.57
2023-05-20T21:04:01.391Z,5.17
2023-05-20T21:06:28.899Z,5.07
2023-05-20T21:09:02.286Z,5.43
2023-05-20T21:11:37.089Z,6.23
2023-05-20T21:14:05.156Z,5.80
2023-05-20T21:16:42.308Z,5.47
2023-05-20T21:19:13.182Z,5.63
2023-05-20T21:21:40.803Z,6.47
2023-05-20T21:24:13.930Z,5.83
2023-05-20T21:26:46.638Z,5.83
2023-05-20T21:29:13.965Z,5.87
2023-05-20T21:31:44.116Z,5.80
2023-05-20T21:34:11.476Z,6.30
2023-05-20T21:36:48.118Z,6.30
2023-05-20T21:39:26.195Z,6.20
2023-05-20T21:41:58.990Z,6.70
2023-05-20T21:44:31.763Z,6.13
2023-05-20T21:47:21.122Z,6.70
2023-05-20T21:49:54.633Z,6.23
2023-05-20T21:52:22.046Z,6.40
2023-05-20T21:54:49.604Z,6.60
2023-05-20T21:57:19.357Z,6.77
2023-05-20T21:59:46.900Z,7.93
2023-05-20T22:02:14.257Z,7.33
2023-05-20T22:04:49.155Z,7.93
2023-05-20T22:07:17.642Z,8.73
2023-05-20T22:09:45.257Z,7.80
2023-05-20T22:12:15.349Z,8.03
2023-05-20T22:14:42.925Z,9.20
2023-05-20T22:17:10.679Z,8.90
2023-05-20T22:19:41.559Z,8.90
2023-05-20T22:22:09.996Z,9.80
2023-05-20T22:24:40.070Z,9.20
2023-05-20T22:27:11.702Z,9.40
2023-05-20T22:29:39.165Z,7.87
2023-05-20T22:32:28.674Z,10.47
2023-05-20T22:34:59.366Z,9.23
2023-05-20T22:37:35.033Z,10.07
2023-05-20T22:40:05.249Z,10.90
2023-05-20T22:42:32.812Z,10.57
2023-05-20T22:45:00.057Z,9.60
2023-05-20T22:47:33.251Z,9.60
2023-05-20T22:50:02.489Z,9.27
2023-05-20T22:52:30.169Z,8.90
2023-05-20T22:55:03.967Z,9.10
2023-05-20T22:57:31.837Z,8.57
2023-05-20T23:00:06.881Z,9.27
2023-05-20T23:02:35.509Z,9.63
2023-05-20T23:05:08.589Z,9.63
2023-05-20T23:07:42.829Z,10.17
2023-05-20T23:10:13.836Z,11.20
2023-05-20T23:12:41.195Z,9.87
2023-05-20T23:15:10.264Z,8.97
2023-05-20T23:17:42.498Z,10.27
2023-05-20T23:20:11.204Z,9.20
2023-05-20T23:22:46.107Z,9.90
2023-05-20T23:25:13.313Z,9.57
2023-05-20T23:28:01.597Z,9.63
2023-05-20T23:30:28.961Z,10.30
2023-05-20T23:33:00.126Z,9.20
2023-05-20T23:35:30.648Z,9.67
2023-05-20T23:38:02.736Z,10.30
2023-05-20T23:40:41.079Z,10.53
2023-05-20T23:43:08.696Z,10.30
2023-05-20T23:45:36.483Z,9.57
2023-05-20T23:48:13.850Z,9.30
2023-05-20T23:50:46.364Z,9.20
2023-05-20T23:53:13.675Z,10.30
2023-05-20T23:55:53.622Z,10.37
2023-05-20T23:58:21.774Z,10.13
